Time;durP1;ratioP1;P1;durP2;ratioP2;P2;SDS_P1;SDS_P2;PMS_P1;PMS_P2;Temp;Humidity;BMP_temperature;BMP_pressure;BME280_temperature;BME280_humidity;BME280_pressure;Samples;Min_cycle;Max_cycle;Signal;HPM_P1;HPM_P2
2023/07/24 00:00:40;;;;;;;2.50;1.80;;;18.70;99.90;;;;;;5087240;28;20174;-71
2023/07/24 00:03:06;;;;;;;2.60;1.97;;;18.60;99.90;;;;;;5077940;28;20192;-71
2023/07/24 00:05:32;;;;;;;5.67;1.70;;;18.50;99.90;;;;;;5094713;28;20416;-71
2023/07/24 00:07:57;;;;;;;2.37;2.17;;;18.50;99.90;;;;;;5094868;28;20655;-70
2023/07/24 00:10:23;;;;;;;3.20;1.97;;;18.40;99.90;;;;;;5095081;28;20315;-70
2023/07/24 00:12:48;;;;;;;2.23;2.03;;;18.30;99.90;;;;;;5094926;28;20596;-71
2023/07/24 00:15:14;;;;;;;3.23;1.83;;;18.30;99.90;;;;;;5094678;28;20165;-71
2023/07/24 00:17:39;;;;;;;2.70;1.80;;;18.30;99.90;;;;;;5087240;28;20528;-71
2023/07/24 00:20:06;;;;;;;3.10;1.87;;;18.20;99.90;;;;;;5091804;28;20536;-71
2023/07/24 00:22:31;;;;;;;2.87;2.23;;;18.10;99.90;;;;;;5094614;28;20194;-71
2023/07/24 00:24:57;;;;;;;2.40;2.00;;;18.00;99.90;;;;;;5094457;28;20434;-71
2023/07/24 00:27:22;;;;;;;2.00;1.70;;;18.00;99.90;;;;;;5094623;28;20189;-71
2023/07/24 00:29:48;;;;;;;8.53;2.10;;;18.00;99.90;;;;;;5094606;28;20693;-72
2023/07/24 00:32:14;;;;;;;2.63;2.43;;;18.00;99.90;;;;;;5092889;28;20190;-71
2023/07/24 00:34:39;;;;;;;4.03;2.20;;;18.00;99.90;;;;;;5087368;28;20253;-70
2023/07/24 00:37:05;;;;;;;3.83;2.47;;;18.00;99.90;;;;;;5094296;28;20189;-70
2023/07/24 00:39:30;;;;;;;4.00;2.63;;;18.00;99.90;;;;;;5094334;28;20181;-70
2023/07/24 00:41:56;;;;;;;7.53;2.27;;;18.00;99.90;;;;;;5094430;28;20661;-71
2023/07/24 00:44:22;;;;;;;2.83;2.30;;;18.00;99.90;;;;;;5094161;28;20174;-71
2023/07/24 00:46:47;;;;;;;2.77;2.47;;;18.00;99.90;;;;;;5093595;28;20851;-70
2023/07/24 00:49:13;;;;;;;3.43;2.70;;;18.00;99.90;;;;;;5092025;28;20645;-73
2023/07/24 00:51:39;;;;;;;4.57;2.90;;;18.00;99.90;;;;;;5085933;28;20244;-71
2023/07/24 00:54:07;;;;;;;5.80;3.10;;;18.00;99.90;;;;;;5072965;28;20208;-71
2023/07/24 00:56:33;;;;;;;4.70;2.47;;;18.00;99.90;;;;;;5073625;28;20555;-70
2023/07/24 00:59:00;;;;;;;4.53;2.43;;;18.00;99.90;;;;;;5073740;28;20505;-71
2023/07/24 01:01:26;;;;;;;10.00;3.60;;;18.00;99.90;;;;;;5073866;28;20416;-71
2023/07/24 01:03:52;;;;;;;3.50;2.70;;;17.90;99.90;;;;;;5090719;28;20506;-71
2023/07/24 01:06:18;;;;;;;3.20;1.93;;;17.90;99.90;;;;;;5091401;28;20423;-71
2023/07/24 01:08:44;;;;;;;3.80;2.13;;;17.90;99.90;;;;;;5085009;28;20819;-71
2023/07/24 01:11:18;;;;;;;4.30;2.40;;;17.80;99.90;;;;;;5073639;28;20212;-72
2023/07/24 01:13:59;;;;;;;4.90;2.97;;;17.80;99.90;;;;;;5073438;28;20184;-71
2023/07/24 01:16:35;;;;;;;4.57;3.00;;;17.70;99.90;;;;;;5072773;28;20397;-72
2023/07/24 01:19:10;;;;;;;3.77;2.70;;;17.60;99.90;;;;;;5085682;28;20426;-72
2023/07/24 01:21:50;;;;;;;4.33;3.10;;;17.60;99.90;;;;;;5093684;28;20391;-71
2023/07/24 01:24:29;;;;;;;4.93;2.83;;;17.60;99.90;;;;;;5089485;28;20432;-71
2023/07/24 01:26:55;;;;;;;3.97;3.20;;;17.50;99.90;;;;;;5085430;28;20975;-71
2023/07/24 01:29:20;;;;;;;2.90;2.20;;;17.50;99.90;;;;;;5093454;28;20510;-71
2023/07/24 01:31:46;;;;;;;4.50;2.70;;;17.50;99.90;;;;;;5090693;28;20201;-71
2023/07/24 01:34:12;;;;;;;2.67;2.43;;;17.60;99.90;;;;;;5093208;28;20692;-71
2023/07/24 01:36:37;;;;;;;2.73;2.53;;;17.60;99.90;;;;;;5093062;28;20575;-72
2023/07/24 01:39:03;;;;;;;5.63;3.00;;;17.60;99.90;;;;;;5090691;28;20276;-71
2023/07/24 01:41:29;;;;;;;4.17;2.70;;;17.60;99.90;;;;;;5084436;28;20245;-71
2023/07/24 01:43:54;;;;;;;3.37;2.60;;;17.70;99.90;;;;;;5088709;28;20178;-71
2023/07/24 01:46:20;;;;;;;4.17;3.30;;;17.70;99.90;;;;;;5088836;28;20185;-71
2023/07/24 01:48:46;;;;;;;3.50;2.97;;;17.70;99.90;;;;;;5091643;28;20701;-72
2023/07/24 01:51:11;;;;;;;8.93;3.80;;;17.70;99.90;;;;;;5093057;28;20169;-71
2023/07/24 01:53:37;;;;;;;3.83;2.60;;;17.60;99.90;;;;;;5092851;28;20443;-72
2023/07/24 01:56:03;;;;;;;10.33;3.23;;;17.70;99.90;;;;;;5092709;28;20172;-71
2023/07/24 01:58:28;;;;;;;6.93;3.27;;;17.70;99.90;;;;;;5092884;28;20546;-72
2023/07/24 02:00:56;;;;;;;3.40;3.00;;;17.70;99.90;;;;;;5075963;28;20174;-70
2023/07/24 02:03:21;;;;;;;8.13;4.33;;;17.80;99.90;;;;;;5091900;28;20181;-71
2023/07/24 02:05:51;;;;;;;5.90;3.60;;;17.80;99.90;;;;;;5092437;28;20503;-71
2023/07/24 02:08:16;;;;;;;4.50;2.90;;;17.80;99.90;;;;;;5092592;28;20213;-70
2023/07/24 02:10:42;;;;;;;7.07;3.80;;;17.80;99.90;;;;;;5092736;28;20412;-71
2023/07/24 02:13:07;;;;;;;5.60;3.47;;;17.80;99.90;;;;;;5087282;28;20208;-71
2023/07/24 02:15:33;;;;;;;6.63;3.63;;;17.90;99.90;;;;;;5087167;28;20257;-70
2023/07/24 02:17:58;;;;;;;6.00;4.07;;;18.00;99.90;;;;;;5082918;28;20170;-71
2023/07/24 02:20:24;;;;;;;8.50;3.73;;;18.00;99.90;;;;;;5091573;28;20200;-70
2023/07/24 02:22:49;;;;;;;6.17;3.90;;;18.00;99.90;;;;;;5086915;28;20214;-71
2023/07/24 02:25:15;;;;;;;3.90;3.20;;;18.10;99.90;;;;;;5086078;28;20201;-70
2023/07/24 02:27:41;;;;;;;3.40;3.10;;;18.20;99.90;;;;;;5091292;28;20264;-70
2023/07/24 02:30:07;;;;;;;11.60;5.50;;;18.20;99.90;;;;;;5083992;28;20221;-70
2023/07/24 02:32:32;;;;;;;5.60;3.10;;;18.10;99.90;;;;;;5091732;28;20819;-70
2023/07/24 02:34:58;;;;;;;3.77;2.70;;;18.20;99.90;;;;;;5088441;28;20522;-70
2023/07/24 02:37:23;;;;;;;8.57;2.90;;;18.20;99.90;;;;;;5090448;28;20181;-70
2023/07/24 02:39:49;;;;;;;3.73;2.43;;;18.20;99.90;;;;;;5089488;28;20539;-70
2023/07/24 02:42:14;;;;;;;4.70;3.10;;;18.20;99.90;;;;;;5084839;28;20227;-70
2023/07/24 02:44:40;;;;;;;5.37;3.57;;;18.20;99.90;;;;;;5088552;28;20177;-70
2023/07/24 02:47:05;;;;;;;4.13;2.60;;;18.30;99.90;;;;;;5076914;28;20747;-70
2023/07/24 02:49:31;;;;;;;6.40;3.40;;;18.30;99.90;;;;;;5089642;28;20197;-69
2023/07/24 02:51:57;;;;;;;3.83;3.43;;;18.40;99.90;;;;;;5088778;28;20193;-70
2023/07/24 02:54:22;;;;;;;5.57;3.50;;;18.50;99.90;;;;;;5086517;28;20435;-70
2023/07/24 02:56:48;;;;;;;3.33;2.60;;;18.40;99.90;;;;;;5089777;28;20188;-70
2023/07/24 02:59:13;;;;;;;6.53;3.00;;;18.40;99.90;;;;;;5083248;28;20586;-71
2023/07/24 03:01:39;;;;;;;3.30;2.63;;;18.40;99.90;;;;;;5082580;28;20181;-71
2023/07/24 03:04:05;;;;;;;3.77;3.37;;;18.40;99.90;;;;;;5090047;28;20166;-71
2023/07/24 03:06:31;;;;;;;4.30;2.97;;;18.40;99.90;;;;;;5086239;28;20173;-70
2023/07/24 03:08:57;;;;;;;3.53;2.80;;;18.40;99.90;;;;;;5089361;28;21031;-70
2023/07/24 03:11:22;;;;;;;3.47;2.83;;;18.40;99.90;;;;;;5090620;28;20235;-70
2023/07/24 03:13:48;;;;;;;4.10;3.30;;;18.40;99.90;;;;;;5086899;28;20177;-70
2023/07/24 03:16:13;;;;;;;5.50;3.67;;;18.30;99.90;;;;;;5085987;28;20174;-69
2023/07/24 03:18:39;;;;;;;5.43;2.70;;;18.30;99.90;;;;;;5089641;28;20193;-71
2023/07/24 03:21:05;;;;;;;6.53;4.17;;;18.30;99.90;;;;;;5091740;28;20211;-70
2023/07/24 03:23:30;;;;;;;7.07;4.80;;;18.20;99.90;;;;;;5090525;28;20184;-71
2023/07/24 03:25:55;;;;;;;6.60;3.10;;;18.20;99.90;;;;;;5072680;28;20213;-70
2023/07/24 03:28:21;;;;;;;5.00;2.90;;;18.20;99.90;;;;;;5072364;28;20214;-71
2023/07/24 03:30:46;;;;;;;3.87;3.00;;;18.10;99.90;;;;;;5089127;28;20177;-71
2023/07/24 03:33:12;;;;;;;5.47;3.10;;;18.10;99.90;;;;;;5095635;28;20207;-70
2023/07/24 03:35:39;;;;;;;12.70;3.10;;;18.00;99.90;;;;;;5095361;28;20162;-70
2023/07/24 03:38:05;;;;;;;5.07;3.13;;;18.00;99.90;;;;;;5095599;28;20158;-70
2023/07/24 03:40:30;;;;;;;3.57;2.90;;;17.90;99.90;;;;;;5095645;28;20452;-70
2023/07/24 03:42:56;;;;;;;3.20;2.90;;;18.00;99.90;;;;;;5076836;28;20251;-70
2023/07/24 03:45:21;;;;;;;6.73;3.43;;;17.90;99.90;;;;;;5087446;28;20661;-70
2023/07/24 03:47:47;;;;;;;3.90;3.23;;;18.00;99.90;;;;;;5095365;28;20177;-70
2023/07/24 03:50:12;;;;;;;5.73;3.30;;;18.00;99.90;;;;;;5095271;28;20196;-70
2023/07/24 03:52:38;;;;;;;4.23;3.37;;;17.90;99.90;;;;;;5095032;28;20280;-70
2023/07/24 03:55:04;;;;;;;3.70;3.00;;;18.00;99.90;;;;;;5094778;28;20158;-70
2023/07/24 03:57:29;;;;;;;6.50;2.80;;;18.00;99.90;;;;;;5095331;28;20585;-70
2023/07/24 03:59:55;;;;;;;3.70;2.80;;;18.00;99.90;;;;;;5086822;28;20193;-71
2023/07/24 04:02:20;;;;;;;3.40;2.73;;;18.00;99.90;;;;;;5095132;28;20177;-71
2023/07/24 04:04:47;;;;;;;7.43;3.43;;;18.10;99.90;;;;;;5095056;28;20623;-71
2023/07/24 04:07:12;;;;;;;5.00;3.57;;;18.00;99.90;;;;;;5094724;28;20170;-71
2023/07/24 04:09:38;;;;;;;5.50;3.40;;;18.00;99.90;;;;;;5095084;28;20846;-73
2023/07/24 04:12:04;;;;;;;7.03;3.33;;;18.00;99.90;;;;;;5094991;28;20250;-70
2023/07/24 04:14:29;;;;;;;4.40;3.40;;;18.10;99.90;;;;;;5090578;28;20178;-70
2023/07/24 04:16:55;;;;;;;5.80;3.30;;;18.20;99.90;;;;;;5087261;28;20772;-70
2023/07/24 04:19:21;;;;;;;3.53;2.97;;;18.20;99.90;;;;;;5094623;28;20186;-70
2023/07/24 04:21:46;;;;;;;4.77;3.30;;;18.20;99.90;;;;;;5081739;28;20182;-70
2023/07/24 04:24:12;;;;;;;3.97;3.53;;;18.20;99.90;;;;;;5089902;28;20189;-71
2023/07/24 04:26:39;;;;;;;3.97;3.10;;;18.20;99.90;;;;;;5089150;28;20182;-71
2023/07/24 04:29:05;;;;;;;12.10;4.40;;;18.20;99.90;;;;;;5092735;28;20193;-71
2023/07/24 04:31:30;;;;;;;5.10;3.47;;;18.30;99.90;;;;;;5094516;28;20423;-71
2023/07/24 04:33:56;;;;;;;4.50;4.03;;;18.30;99.90;;;;;;5075639;28;20404;-70
2023/07/24 04:36:21;;;;;;;4.60;3.60;;;18.30;99.90;;;;;;5074087;28;20163;-70
2023/07/24 04:38:47;;;;;;;6.20;3.40;;;18.40;99.90;;;;;;5074275;28;20186;-72
2023/07/24 04:41:12;;;;;;;3.20;2.90;;;18.40;99.90;;;;;;5072993;28;20162;-70
2023/07/24 04:43:38;;;;;;;4.83;3.63;;;18.50;99.90;;;;;;5079907;28;20179;-71
2023/07/24 04:46:04;;;;;;;7.50;3.93;;;18.50;99.90;;;;;;5084620;28;20197;-70
2023/07/24 04:48:29;;;;;;;3.50;3.20;;;18.50;99.90;;;;;;5094186;28;20799;-70
2023/07/24 04:50:55;;;;;;;3.60;3.00;;;18.50;99.90;;;;;;5075426;28;20185;-70
2023/07/24 04:53:21;;;;;;;5.00;2.67;;;18.50;99.90;;;;;;5073949;28;20612;-70
2023/07/24 04:55:47;;;;;;;4.77;3.37;;;18.40;99.90;;;;;;5073239;28;20408;-71
2023/07/24 04:58:12;;;;;;;4.80;3.00;;;18.50;99.90;;;;;;5092128;28;20435;-71
2023/07/24 05:00:38;;;;;;;4.23;3.27;;;18.50;99.90;;;;;;5094066;28;20195;-71
2023/07/24 05:03:04;;;;;;;4.40;2.77;;;18.40;99.90;;;;;;5094043;28;20165;-70
2023/07/24 05:05:31;;;;;;;4.53;3.33;;;18.50;99.90;;;;;;5093717;28;20162;-70
2023/07/24 05:07:56;;;;;;;4.47;3.30;;;18.50;99.90;;;;;;5074819;28;20447;-73
2023/07/24 05:10:22;;;;;;;6.00;3.33;;;18.70;99.90;;;;;;5073752;28;20401;-71
2023/07/24 05:12:47;;;;;;;3.37;2.57;;;18.80;99.90;;;;;;5085640;28;20570;-71
2023/07/24 05:15:16;;;;;;;3.60;2.80;;;18.90;99.90;;;;;;5093483;28;20560;-72
2023/07/24 05:17:42;;;;;;;6.20;4.07;;;19.00;99.90;;;;;;5093585;28;20165;-71
2023/07/24 05:20:09;;;;;;;3.43;2.90;;;19.00;99.90;;;;;;5093626;28;20515;-70
2023/07/24 05:22:34;;;;;;;3.73;3.10;;;19.10;99.90;;;;;;5087194;28;20431;-71
2023/07/24 05:25:00;;;;;;;4.40;3.13;;;19.20;99.90;;;;;;5091789;28;20510;-70
2023/07/24 05:27:25;;;;;;;3.20;2.90;;;19.10;99.90;;;;;;5088050;28;20237;-71
2023/07/24 05:29:52;;;;;;;6.97;3.13;;;19.30;99.90;;;;;;5076002;28;20225;-70
2023/07/24 05:32:17;;;;;;;4.43;3.10;;;19.40;99.90;;;;;;5093332;28;20243;-70
2023/07/24 05:34:43;;;;;;;5.80;2.93;;;19.60;99.90;;;;;;5093439;28;20884;-70
2023/07/24 05:37:09;;;;;;;6.80;4.00;;;19.80;99.90;;;;;;5090877;28;20174;-70
2023/07/24 05:39:35;;;;;;;4.67;3.17;;;20.00;99.90;;;;;;5091137;28;20187;-70
2023/07/24 05:42:00;;;;;;;5.13;3.87;;;20.20;99.90;;;;;;5089015;28;20431;-70
2023/07/24 05:44:26;;;;;;;8.50;3.27;;;20.40;99.90;;;;;;5082780;28;20189;-70
2023/07/24 05:46:51;;;;;;;3.20;2.90;;;20.60;99.90;;;;;;5083538;28;20220;-70
2023/07/24 05:49:17;;;;;;;6.33;3.50;;;20.70;99.90;;;;;;5086299;28;20206;-70
2023/07/24 05:51:42;;;;;;;3.93;3.07;;;20.80;99.90;;;;;;5090568;28;20547;-69
2023/07/24 05:54:08;;;;;;;5.10;3.50;;;20.80;99.90;;;;;;5088944;28;20178;-69
2023/07/24 05:56:33;;;;;;;4.60;3.30;;;21.00;99.90;;;;;;5085138;28;20261;-70
2023/07/24 05:58:59;;;;;;;3.40;2.80;;;21.10;99.90;;;;;;5085384;28;20672;-70
2023/07/24 06:01:24;;;;;;;4.20;2.67;;;21.40;99.90;;;;;;5092926;28;20218;-70
2023/07/24 06:03:50;;;;;;;4.20;3.30;;;21.80;99.90;;;;;;5091191;28;20178;-69
2023/07/24 06:06:15;;;;;;;4.90;3.10;;;22.20;99.90;;;;;;5092321;28;20576;-70
2023/07/24 06:08:41;;;;;;;3.63;2.93;;;22.30;99.90;;;;;;5092036;28;20217;-72
2023/07/24 06:11:06;;;;;;;4.53;3.17;;;22.20;99.90;;;;;;5091977;28;20184;-71
2023/07/24 06:13:32;;;;;;;7.93;5.93;;;22.20;99.90;;;;;;5091571;28;20570;-71
2023/07/24 06:15:57;;;;;;;3.37;2.83;;;22.30;99.90;;;;;;5073232;28;20681;-71
2023/07/24 06:18:23;;;;;;;7.00;2.70;;;22.30;99.90;;;;;;5072166;28;20190;-71
2023/07/24 06:20:53;;;;;;;3.07;2.63;;;22.40;99.90;;;;;;5074851;28;20547;-71
2023/07/24 06:23:18;;;;;;;2.93;2.63;;;22.40;99.90;;;;;;5092633;28;20695;-70
2023/07/24 06:25:44;;;;;;;3.33;2.80;;;22.40;99.90;;;;;;5092227;28;20404;-70
2023/07/24 06:28:09;;;;;;;2.93;2.47;;;22.30;99.90;;;;;;5090631;28;20178;-71
2023/07/24 06:30:35;;;;;;;2.90;2.60;;;22.30;99.90;;;;;;5092307;28;20661;-70
2023/07/24 06:33:00;;;;;;;3.37;2.50;;;22.20;99.90;;;;;;5072896;28;20233;-70
2023/07/24 06:35:26;;;;;;;5.33;2.30;;;21.90;99.90;;;;;;5071994;28;20166;-70
2023/07/24 06:37:51;;;;;;;3.90;2.43;;;21.70;99.90;;;;;;5086111;28;20587;-70
2023/07/24 06:40:17;;;;;;;2.60;2.40;;;21.60;99.90;;;;;;5092187;28;20192;-70
2023/07/24 06:42:42;;;;;;;3.83;3.23;;;21.70;99.90;;;;;;5086832;28;20554;-70
2023/07/24 06:45:08;;;;;;;4.40;3.20;;;21.70;99.90;;;;;;5091918;28;20178;-70
2023/07/24 06:47:34;;;;;;;2.53;2.03;;;21.70;99.90;;;;;;5092226;28;20170;-70
2023/07/24 06:49:59;;;;;;;2.60;2.23;;;21.60;99.90;;;;;;5072818;28;20301;-69
2023/07/24 06:52:25;;;;;;;6.23;2.37;;;21.60;99.90;;;;;;5074913;28;20224;-70
2023/07/24 06:54:50;;;;;;;2.60;2.40;;;21.60;99.90;;;;;;5088290;28;20734;-71
2023/07/24 06:57:16;;;;;;;3.30;2.60;;;21.70;99.90;;;;;;5086547;28;20181;-70
2023/07/24 06:59:41;;;;;;;5.73;2.33;;;21.90;99.90;;;;;;5090388;28;20189;-71
2023/07/24 07:02:07;;;;;;;3.40;2.43;;;22.00;99.90;;;;;;5083654;28;20700;-70
2023/07/24 07:04:32;;;;;;;2.60;2.10;;;22.30;99.90;;;;;;5085872;28;20180;-70
2023/07/24 07:06:58;;;;;;;3.33;2.43;;;22.70;99.90;;;;;;5089583;28;20180;-70
2023/07/24 07:09:23;;;;;;;2.97;2.67;;;22.90;99.90;;;;;;5087640;28;20197;-70
2023/07/24 07:11:49;;;;;;;2.73;2.43;;;23.00;99.90;;;;;;5092911;28;20232;-70
2023/07/24 07:14:14;;;;;;;3.00;2.20;;;23.10;99.90;;;;;;5096023;28;20245;-70
2023/07/24 07:16:40;;;;;;;3.83;2.50;;;23.00;99.90;;;;;;5095771;28;20266;-70
2023/07/24 07:19:06;;;;;;;2.70;2.00;;;22.90;99.90;;;;;;5091316;28;20197;-70
2023/07/24 07:21:31;;;;;;;6.80;2.00;;;22.60;99.90;;;;;;5077825;28;20505;-71
2023/07/24 07:23:57;;;;;;;2.93;2.30;;;22.50;99.90;;;;;;5088803;28;20233;-70
2023/07/24 07:26:22;;;;;;;3.23;2.03;;;22.60;99.90;;;;;;5092909;28;20252;-70
2023/07/24 07:28:48;;;;;;;3.20;2.13;;;22.50;99.90;;;;;;5095733;28;20190;-70
2023/07/24 07:31:14;;;;;;;2.80;2.20;;;22.60;99.90;;;;;;5089740;28;20515;-71
2023/07/24 07:33:39;;;;;;;2.90;2.07;;;22.80;99.90;;;;;;5084084;28;20202;-71
2023/07/24 07:36:05;;;;;;;2.13;1.93;;;23.00;99.90;;;;;;5095374;28;20189;-70
2023/07/24 07:38:31;;;;;;;3.33;2.10;;;23.00;99.90;;;;;;5084348;28;20204;-70
2023/07/24 07:40:57;;;;;;;3.80;2.00;;;23.20;99.90;;;;;;5087608;28;20502;-71
2023/07/24 07:43:22;;;;;;;2.83;2.50;;;23.60;99.90;;;;;;5092718;28;20177;-70
2023/07/24 07:45:48;;;;;;;4.83;2.60;;;24.00;99.90;;;;;;5099141;28;20173;-70
2023/07/24 07:48:13;;;;;;;4.27;2.43;;;24.10;99.90;;;;;;5103324;28;20173;-70
2023/07/24 07:50:39;;;;;;;2.73;2.40;;;24.30;99.90;;;;;;5115111;27;20241;-70
2023/07/24 07:53:04;;;;;;;4.30;2.53;;;24.20;99.90;;;;;;5091435;28;20233;-70
2023/07/24 07:55:30;;;;;;;3.63;2.57;;;24.30;99.90;;;;;;5092436;28;20546;-70
2023/07/24 07:57:56;;;;;;;3.17;2.87;;;24.20;99.90;;;;;;5085948;28;20666;-70
2023/07/24 08:00:21;;;;;;;3.10;2.40;;;24.10;99.90;;;;;;5095359;28;20183;-70
2023/07/24 08:02:47;;;;;;;5.63;2.40;;;24.00;99.90;;;;;;5096542;28;20230;-70
2023/07/24 08:05:12;;;;;;;4.07;2.10;;;23.90;99.90;;;;;;5099332;28;20214;-70
2023/07/24 08:07:38;;;;;;;4.83;2.80;;;24.40;99.90;;;;;;5112738;28;20176;-70
2023/07/24 08:10:04;;;;;;;3.70;2.70;;;24.90;99.90;;;;;;5087306;28;20196;-70
2023/07/24 08:12:29;;;;;;;7.40;3.90;;;25.10;99.90;;;;;;5094922;28;20545;-70
2023/07/24 08:14:58;;;;;;;3.07;2.40;;;24.90;99.90;;;;;;5075110;28;20423;-70
2023/07/24 08:17:23;;;;;;;4.73;2.67;;;24.70;99.90;;;;;;5097465;28;20176;-70
2023/07/24 08:19:49;;;;;;;3.30;2.70;;;24.50;99.90;;;;;;5097267;28;20430;-71
2023/07/24 08:22:14;;;;;;;4.00;2.20;;;24.10;99.90;;;;;;5106080;28;20205;-70
2023/07/24 08:24:40;;;;;;;3.00;2.30;;;23.80;99.90;;;;;;5093069;28;20178;-70
2023/07/24 08:27:06;;;;;;;6.50;3.40;;;23.70;99.90;;;;;;5094486;28;20180;-71
2023/07/24 08:29:33;;;;;;;3.90;3.13;;;23.70;99.90;;;;;;5094654;28;20189;-70
2023/07/24 08:31:58;;;;;;;3.43;3.00;;;23.70;99.90;;;;;;5095260;28;20188;-70
2023/07/24 08:34:24;;;;;;;3.10;2.53;;;23.60;99.90;;;;;;5088915;28;20931;-70
2023/07/24 08:36:49;;;;;;;3.20;2.43;;;23.80;99.90;;;;;;5086758;28;20165;-71
2023/07/24 08:39:15;;;;;;;3.10;2.50;;;24.00;99.90;;;;;;5089094;28;20200;-71
2023/07/24 08:41:40;;;;;;;3.17;2.40;;;24.30;99.90;;;;;;5084177;28;20174;-69
2023/07/24 08:44:08;;;;;;;2.40;2.20;;;24.80;99.90;;;;;;5089725;28;20170;-69
2023/07/24 08:46:38;;;;;;;3.97;2.47;;;25.00;99.90;;;;;;5087194;28;20170;-69
2023/07/24 08:49:04;;;;;;;2.27;2.00;;;25.50;99.90;;;;;;5094225;28;20451;-69
2023/07/24 08:51:31;;;;;;;4.70;2.60;;;25.60;99.90;;;;;;5094328;28;20499;-68
2023/07/24 08:53:57;;;;;;;2.80;2.60;;;25.20;99.90;;;;;;5086790;28;20508;-69
2023/07/24 08:56:23;;;;;;;3.10;2.43;;;24.90;99.90;;;;;;5091417;28;20915;-69
2023/07/24 08:58:48;;;;;;;5.03;4.17;;;24.50;99.90;;;;;;5093905;28;20662;-69
2023/07/24 09:01:14;;;;;;;2.90;2.20;;;24.40;99.90;;;;;;5092490;28;20222;-69
2023/07/24 09:03:40;;;;;;;3.00;2.50;;;24.30;99.90;;;;;;5093911;28;20742;-69
2023/07/24 09:06:09;;;;;;;4.00;2.83;;;24.00;99.90;;;;;;5088499;28;20169;-70
2023/07/24 09:08:39;;;;;;;4.03;2.30;;;24.00;99.90;;;;;;5083508;28;20202;-70
2023/07/24 09:11:06;;;;;;;5.30;2.00;;;24.30;99.90;;;;;;5087374;28;20434;-69
2023/07/24 09:13:32;;;;;;;2.97;2.20;;;24.60;99.90;;;;;;5086922;28;20452;-69
2023/07/24 09:15:59;;;;;;;6.87;6.17;;;24.80;99.90;;;;;;5092007;28;20423;-70
2023/07/24 09:18:24;;;;;;;3.13;2.17;;;25.00;99.90;;;;;;5088982;28;20485;-69
2023/07/24 09:20:50;;;;;;;2.10;1.70;;;24.90;99.90;;;;;;5093004;28;20510;-70
2023/07/24 09:23:24;;;;;;;2.60;2.10;;;24.70;99.90;;;;;;5078095;28;20588;-70
2023/07/24 09:25:50;;;;;;;2.70;2.03;;;24.50;99.90;;;;;;5090129;28;20235;-69
2023/07/24 09:28:17;;;;;;;2.70;2.40;;;24.50;99.90;;;;;;5079187;28;20455;-69
2023/07/24 09:30:52;;;;;;;3.53;2.43;;;24.50;99.90;;;;;;5092432;28;20181;-70
2023/07/24 09:33:18;;;;;;;2.43;2.23;;;24.70;99.90;;;;;;5083212;28;20820;-69
2023/07/24 09:35:43;;;;;;;2.63;2.30;;;24.90;99.90;;;;;;5091799;28;20410;-69
2023/07/24 09:38:11;;;;;;;3.17;2.10;;;25.20;99.90;;;;;;5083001;28;20249;-69
2023/07/24 09:40:45;;;;;;;3.57;2.60;;;25.60;99.90;;;;;;5086656;28;20494;-69
2023/07/24 09:43:17;;;;;;;4.27;2.33;;;25.70;99.90;;;;;;5092902;28;20415;-69
2023/07/24 09:45:44;;;;;;;3.93;2.00;;;25.80;99.90;;;;;;5090486;28;20946;-69
2023/07/24 09:48:14;;;;;;;2.70;2.30;;;25.90;99.90;;;;;;5089567;28;20500;-68
2023/07/24 09:50:57;;;;;;;4.07;2.20;;;26.50;99.90;;;;;;5092138;28;20485;-69
2023/07/24 09:53:48;;;;;;;2.40;2.00;;;27.50;99.90;;;;;;5089133;28;20459;-69
2023/07/24 09:56:14;;;;;;;2.63;2.43;;;29.40;99.90;;;;;;5086474;28;20400;-69
2023/07/24 09:58:40;;;;;;;2.67;2.43;;;30.00;95.40;;;;;;5089992;28;20443;-69
2023/07/24 10:01:08;;;;;;;2.07;1.83;;;29.90;90.60;;;;;;5090768;28;20422;-69
2023/07/24 10:03:35;;;;;;;2.60;1.90;;;29.60;86.90;;;;;;5092887;28;20731;-69
2023/07/24 10:06:02;;;;;;;2.93;2.53;;;29.30;88.30;;;;;;5089567;28;20439;-68
2023/07/24 10:08:28;;;;;;;2.30;2.00;;;29.00;88.60;;;;;;5085255;28;20463;-69
2023/07/24 10:10:53;;;;;;;2.33;1.97;;;28.90;90.30;;;;;;5092748;28;20412;-69
2023/07/24 10:13:21;;;;;;;3.57;2.30;;;28.80;90.40;;;;;;5092640;28;20193;-69
2023/07/24 10:15:48;;;;;;;2.93;1.80;;;28.40;89.90;;;;;;5086135;28;20186;-68
2023/07/24 10:18:17;;;;;;;3.40;2.20;;;28.10;90.50;;;;;;5092466;28;20400;-69
2023/07/24 10:20:43;;;;;;;2.33;2.13;;;28.10;92.20;;;;;;5090899;28;20435;-69
2023/07/24 10:23:11;;;;;;;2.37;2.17;;;29.00;93.40;;;;;;5083169;28;20981;-70
2023/07/24 10:25:43;;;;;;;2.37;2.17;;;31.20;91.60;;;;;;5092184;28;20248;-69
2023/07/24 10:28:11;;;;;;;2.47;2.20;;;32.50;79.40;;;;;;5088848;28;20459;-69
2023/07/24 10:30:38;;;;;;;2.20;2.00;;;33.70;70.20;;;;;;5081281;28;20434;-67
2023/07/24 10:33:06;;;;;;;2.20;2.00;;;34.10;63.10;;;;;;5083314;28;20459;-69
2023/07/24 10:35:41;;;;;;;2.47;2.23;;;33.90;60.00;;;;;;5089093;28;20463;-69
2023/07/24 10:38:07;;;;;;;5.80;2.20;;;33.10;58.30;;;;;;5085053;28;20427;-69
2023/07/24 10:40:34;;;;;;;2.60;2.40;;;32.30;58.70;;;;;;5087390;28;20435;-69
2023/07/24 10:43:01;;;;;;;2.87;2.57;;;31.60;60.40;;;;;;5092253;28;20421;-69
2023/07/24 10:45:26;;;;;;;2.30;2.10;;;31.20;62.30;;;;;;5085507;28;20436;-67
2023/07/24 10:47:53;;;;;;;2.33;2.10;;;30.80;63.40;;;;;;5086378;28;20442;-70
2023/07/24 10:50:19;;;;;;;4.33;3.63;;;30.10;64.60;;;;;;5088780;28;20201;-69
2023/07/24 10:52:44;;;;;;;4.07;2.37;;;29.60;67.70;;;;;;5082406;28;20665;-70
2023/07/24 10:55:10;;;;;;;2.97;2.13;;;29.30;70.20;;;;;;5086628;28;20186;-70
2023/07/24 10:57:35;;;;;;;3.03;2.57;;;28.90;72.50;;;;;;5092002;28;20204;-69
2023/07/24 11:00:01;;;;;;;2.30;2.10;;;28.60;74.30;;;;;;5082778;28;20641;-70
2023/07/24 11:02:27;;;;;;;2.47;1.80;;;28.90;78.40;;;;;;5086870;28;20196;-70
2023/07/24 11:04:52;;;;;;;2.37;2.10;;;29.40;79.00;;;;;;5091039;28;20543;-69
2023/07/24 11:07:18;;;;;;;2.30;2.07;;;30.20;77.70;;;;;;5086974;28;20174;-69
2023/07/24 11:09:46;;;;;;;3.73;2.33;;;30.60;75.60;;;;;;5087700;28;20201;-70
2023/07/24 11:12:16;;;;;;;2.77;2.10;;;30.90;73.30;;;;;;5086798;28;20236;-70
2023/07/24 11:14:48;;;;;;;3.30;2.83;;;31.30;75.90;;;;;;5079080;28;20476;-70
2023/07/24 11:17:14;;;;;;;2.27;2.07;;;31.10;75.10;;;;;;5088186;28;20782;-70
2023/07/24 11:19:40;;;;;;;2.13;1.93;;;30.70;75.00;;;;;;5091008;28;20447;-69
2023/07/24 11:22:06;;;;;;;7.40;4.73;;;30.20;76.50;;;;;;5089308;28;20276;-70
2023/07/24 11:24:32;;;;;;;4.33;2.67;;;29.50;78.80;;;;;;5088388;28;20215;-70
2023/07/24 11:26:57;;;;;;;2.70;2.17;;;28.80;82.90;;;;;;5086921;28;20995;-70
2023/07/24 11:29:23;;;;;;;3.53;2.40;;;28.20;89.30;;;;;;5085097;28;20676;-69
2023/07/24 11:31:58;;;;;;;2.63;2.20;;;27.60;92.60;;;;;;5086393;28;20231;-70
2023/07/24 11:34:24;;;;;;;3.63;2.07;;;27.00;99.90;;;;;;5084730;28;20204;-72
2023/07/24 11:36:50;;;;;;;2.70;2.07;;;26.10;99.90;;;;;;5093867;28;20451;-71
2023/07/24 11:39:23;;;;;;;3.70;1.90;;;25.00;99.90;;;;;;5084329;28;20482;-73
2023/07/24 11:41:49;;;;;;;4.53;2.20;;;24.10;99.90;;;;;;5089112;28;20196;-72
2023/07/24 11:44:16;;;;;;;3.53;1.80;;;23.70;99.90;;;;;;5096751;28;20427;-71
2023/07/24 11:46:43;;;;;;;2.60;1.67;;;23.70;99.90;;;;;;5083654;28;20206;-72
2023/07/24 11:49:08;;;;;;;1.80;1.40;;;24.40;99.90;;;;;;5082421;28;20542;-71
2023/07/24 11:51:36;;;;;;;2.00;1.20;;;26.20;99.90;;;;;;5089497;28;21171;-71
2023/07/24 11:54:11;;;;;;;1.30;1.20;;;28.60;99.90;;;;;;5083598;28;20201;-72
2023/07/24 11:56:37;;;;;;;2.13;1.20;;;31.70;99.90;;;;;;5088998;28;20433;-70
2023/07/24 11:59:13;;;;;;;1.70;1.40;;;35.20;99.90;;;;;;5087359;28;20510;-72
2023/07/24 12:01:38;;;;;;;9.73;8.83;;;38.40;90.20;;;;;;5091298;28;20185;-71
2023/07/24 12:04:04;;;;;;;3.07;2.87;;;39.60;69.00;;;;;;5094060;28;20722;-71
2023/07/24 12:06:32;;;;;;;2.80;1.80;;;39.10;57.70;;;;;;5083880;28;20654;-71
2023/07/24 12:09:05;;;;;;;1.50;1.40;;;37.30;55.80;;;;;;5093259;28;20234;-70
2023/07/24 12:11:31;;;;;;;1.70;1.53;;;35.40;57.80;;;;;;5089454;28;20419;-71
2023/07/24 12:13:57;;;;;;;3.13;1.90;;;33.70;61.30;;;;;;5095055;28;20458;-71
2023/07/24 12:16:23;;;;;;;2.20;1.90;;;32.20;68.20;;;;;;5084206;28;21272;-71
2023/07/24 12:18:48;;;;;;;3.87;2.53;;;31.10;77.60;;;;;;5094589;28;20185;-71
2023/07/24 12:21:14;;;;;;;3.50;2.10;;;30.40;87.90;;;;;;5088494;28;20169;-71
2023/07/24 12:23:39;;;;;;;5.13;2.40;;;30.00;95.10;;;;;;5086825;28;20724;-70
2023/07/24 12:26:05;;;;;;;2.23;1.73;;;30.20;99.90;;;;;;5090297;28;20748;-71
2023/07/24 12:28:30;;;;;;;2.00;1.40;;;32.60;99.90;;;;;;5090340;28;20572;-71
2023/07/24 12:30:56;;;;;;;5.10;1.70;;;34.90;99.90;;;;;;5084415;28;20174;-70
2023/07/24 12:33:23;;;;;;;1.60;1.50;;;37.70;91.70;;;;;;5094543;28;20701;-71
2023/07/24 12:35:49;;;;;;;1.87;1.53;;;40.70;76.50;;;;;;5092575;28;20154;-68
2023/07/24 12:38:15;;;;;;;1.90;1.73;;;43.40;59.70;;;;;;5086787;28;20406;-71
2023/07/24 12:40:40;;;;;;;2.60;2.40;;;45.40;52.60;;;;;;5091038;28;20409;-71